sensor_id;sensor_type;location;lat;lon;timestamp;temperature;humidity
38480;DHT22;62333;51.980;5.934;2022-10-23T00:03:44;15.20;91.10
38480;DHT22;62333;51.980;5.934;2022-10-23T00:06:11;15.10;91.10
38480;DHT22;62333;51.980;5.934;2022-10-23T00:08:38;15.10;91.10
38480;DHT22;62333;51.980;5.934;2022-10-23T00:11:08;15.10;91.10
38480;DHT22;62333;51.980;5.934;2022-10-23T00:13:35;15.10;91.10
38480;DHT22;62333;51.980;5.934;2022-10-23T00:16:00;15.10;91.20
38480;DHT22;62333;51.980;5.934;2022-10-23T00:18:26;15.00;91.20
38480;DHT22;62333;51.980;5.934;2022-10-23T00:20:52;15.00;91.20
38480;DHT22;62333;51.980;5.934;2022-10-23T00:23:17;15.00;91.20
38480;DHT22;62333;51.980;5.934;2022-10-23T00:25:43;15.00;91.20
38480;DHT22;62333;51.980;5.934;2022-10-23T00:28:09;15.00;91.20
38480;DHT22;62333;51.980;5.934;2022-10-23T00:30:35;15.00;91.20
38480;DHT22;62333;51.980;5.934;2022-10-23T00:33:00;15.00;91.20
38480;DHT22;62333;51.980;5.934;2022-10-23T00:35:26;15.00;91.30
38480;DHT22;62333;51.980;5.934;2022-10-23T00:37:51;15.00;91.30
38480;DHT22;62333;51.980;5.934;2022-10-23T00:40:17;15.00;91.30
38480;DHT22;62333;51.980;5.934;2022-10-23T00:42:43;14.90;91.30
38480;DHT22;62333;51.980;5.934;2022-10-23T00:45:30;14.90;91.30
38480;DHT22;62333;51.980;5.934;2022-10-23T00:48:01;14.90;91.30
38480;DHT22;62333;51.980;5.934;2022-10-23T00:50:30;14.90;91.60
38480;DHT22;62333;51.980;5.934;2022-10-23T00:52:58;14.90;91.30
38480;DHT22;62333;51.980;5.934;2022-10-23T00:55:26;14.90;91.30
38480;DHT22;62333;51.980;5.934;2022-10-23T00:57:52;14.90;91.30
38480;DHT22;62333;51.980;5.934;2022-10-23T01:00:30;14.80;91.30
38480;DHT22;62333;51.980;5.934;2022-10-23T01:02:56;14.90;91.30
38480;DHT22;62333;51.980;5.934;2022-10-23T01:05:27;14.80;91.30
38480;DHT22;62333;51.980;5.934;2022-10-23T01:08:06;14.80;91.30
38480;DHT22;62333;51.980;5.934;2022-10-23T01:11:19;14.80;91.30
38480;DHT22;62333;51.980;5.934;2022-10-23T01:13:43;14.80;91.30
38480;DHT22;62333;51.980;5.934;2022-10-23T01:16:17;14.80;91.30
38480;DHT22;62333;51.980;5.934;2022-10-23T01:24:48;14.70;91.40
38480;DHT22;62333;51.980;5.934;2022-10-23T01:27:22;14.70;91.40
38480;DHT22;62333;51.980;5.934;2022-10-23T01:32:43;14.60;91.50
38480;DHT22;62333;51.980;5.934;2022-10-23T01:35:21;14.60;91.50
38480;DHT22;62333;51.980;5.934;2022-10-23T01:37:54;14.60;91.50
38480;DHT22;62333;51.980;5.934;2022-10-23T01:40:37;14.60;91.50
38480;DHT22;62333;51.980;5.934;2022-10-23T01:43:14;14.60;91.50
38480;DHT22;62333;51.980;5.934;2022-10-23T01:45:44;14.60;91.60
38480;DHT22;62333;51.980;5.934;2022-10-23T01:48:18;14.60;91.60
38480;DHT22;62333;51.980;5.934;2022-10-23T01:50:46;14.60;91.50
38480;DHT22;62333;51.980;5.934;2022-10-23T01:53:11;14.60;91.50
38480;DHT22;62333;51.980;5.934;2022-10-23T01:55:39;14.60;91.60
38480;DHT22;62333;51.980;5.934;2022-10-23T01:58:06;14.60;91.60
38480;DHT22;62333;51.980;5.934;2022-10-23T02:00:33;14.60;91.60
38480;DHT22;62333;51.980;5.934;2022-10-23T02:03:00;14.50;91.60
38480;DHT22;62333;51.980;5.934;2022-10-23T02:05:29;14.50;91.60
38480;DHT22;62333;51.980;5.934;2022-10-23T02:07:56;14.50;91.60
38480;DHT22;62333;51.980;5.934;2022-10-23T02:10:33;14.50;91.60
38480;DHT22;62333;51.980;5.934;2022-10-23T02:21:30;14.50;91.70
38480;DHT22;62333;51.980;5.934;2022-10-23T02:24:03;14.50;91.80
38480;DHT22;62333;51.980;5.934;2022-10-23T02:26:36;14.50;91.80
38480;DHT22;62333;51.980;5.934;2022-10-23T02:29:13;14.50;91.80
38480;DHT22;62333;51.980;5.934;2022-10-23T02:31:42;14.50;91.80
38480;DHT22;62333;51.980;5.934;2022-10-23T02:34:08;14.50;91.80
38480;DHT22;62333;51.980;5.934;2022-10-23T02:36:33;14.40;91.80
38480;DHT22;62333;51.980;5.934;2022-10-23T02:38:59;14.40;91.80
38480;DHT22;62333;51.980;5.934;2022-10-23T02:41:45;14.40;91.80
38480;DHT22;62333;51.980;5.934;2022-10-23T02:50:06;14.40;91.90
38480;DHT22;62333;51.980;5.934;2022-10-23T02:52:53;14.40;91.90
38480;DHT22;62333;51.980;5.934;2022-10-23T02:58:41;14.30;91.90
38480;DHT22;62333;51.980;5.934;2022-10-23T03:01:15;14.30;91.90
38480;DHT22;62333;51.980;5.934;2022-10-23T03:03:46;14.30;91.90
38480;DHT22;62333;51.980;5.934;2022-10-23T03:06:13;14.30;91.90
38480;DHT22;62333;51.980;5.934;2022-10-23T03:11:14;14.30;91.90
38480;DHT22;62333;51.980;5.934;2022-10-23T03:13:40;14.20;91.90
38480;DHT22;62333;51.980;5.934;2022-10-23T03:16:06;14.20;91.90
38480;DHT22;62333;51.980;5.934;2022-10-23T03:18:31;14.20;91.90
38480;DHT22;62333;51.980;5.934;2022-10-23T03:20:57;14.20;91.90
38480;DHT22;62333;51.980;5.934;2022-10-23T03:23:22;14.20;91.90
38480;DHT22;62333;51.980;5.934;2022-10-23T03:25:48;14.20;91.90
38480;DHT22;62333;51.980;5.934;2022-10-23T03:28:14;14.20;92.00
38480;DHT22;62333;51.980;5.934;2022-10-23T03:30:39;14.20;92.00
38480;DHT22;62333;51.980;5.934;2022-10-23T03:33:05;14.20;92.00
38480;DHT22;62333;51.980;5.934;2022-10-23T03:35:30;14.20;92.00
38480;DHT22;62333;51.980;5.934;2022-10-23T03:37:56;14.20;92.10
38480;DHT22;62333;51.980;5.934;2022-10-23T03:40:22;14.10;92.30
38480;DHT22;62333;51.980;5.934;2022-10-23T03:42:47;14.10;92.10
38480;DHT22;62333;51.980;5.934;2022-10-23T03:45:13;14.10;92.10
38480;DHT22;62333;51.980;5.934;2022-10-23T03:47:39;14.20;92.10
38480;DHT22;62333;51.980;5.934;2022-10-23T03:50:06;14.20;92.10
38480;DHT22;62333;51.980;5.934;2022-10-23T03:52:32;14.10;92.10
38480;DHT22;62333;51.980;5.934;2022-10-23T03:54:58;14.20;92.20
38480;DHT22;62333;51.980;5.934;2022-10-23T03:57:23;14.20;92.20
38480;DHT22;62333;51.980;5.934;2022-10-23T03:59:49;14.20;92.20
38480;DHT22;62333;51.980;5.934;2022-10-23T04:02:15;14.20;92.20
38480;DHT22;62333;51.980;5.934;2022-10-23T04:04:40;14.10;92.20
38480;DHT22;62333;51.980;5.934;2022-10-23T04:07:06;14.20;92.20
38480;DHT22;62333;51.980;5.934;2022-10-23T04:09:32;14.20;92.20
38480;DHT22;62333;51.980;5.934;2022-10-23T04:11:57;14.10;92.30
38480;DHT22;62333;51.980;5.934;2022-10-23T04:14:23;14.10;92.30
38480;DHT22;62333;51.980;5.934;2022-10-23T04:16:48;14.20;92.40
38480;DHT22;62333;51.980;5.934;2022-10-23T04:19:14;14.10;92.40
38480;DHT22;62333;51.980;5.934;2022-10-23T04:21:41;14.10;92.40
38480;DHT22;62333;51.980;5.934;2022-10-23T04:24:07;14.20;92.50
38480;DHT22;62333;51.980;5.934;2022-10-23T04:26:33;14.10;92.50
38480;DHT22;62333;51.980;5.934;2022-10-23T04:28:59;14.20;92.50
38480;DHT22;62333;51.980;5.934;2022-10-23T04:31:24;14.20;92.60
38480;DHT22;62333;51.980;5.934;2022-10-23T04:33:50;14.20;92.60
38480;DHT22;62333;51.980;5.934;2022-10-23T04:36:16;14.20;92.60
38480;DHT22;62333;51.980;5.934;2022-10-23T04:38:41;14.20;92.60
38480;DHT22;62333;51.980;5.934;2022-10-23T04:41:07;14.20;92.70
38480;DHT22;62333;51.980;5.934;2022-10-23T04:43:33;14.20;92.70
38480;DHT22;62333;51.980;5.934;2022-10-23T04:45:59;14.20;92.70
38480;DHT22;62333;51.980;5.934;2022-10-23T04:48:24;14.20;92.70
38480;DHT22;62333;51.980;5.934;2022-10-23T04:51:08;14.20;92.70
38480;DHT22;62333;51.980;5.934;2022-10-23T04:53:34;14.20;92.70
38480;DHT22;62333;51.980;5.934;2022-10-23T04:56:00;14.30;92.80
38480;DHT22;62333;51.980;5.934;2022-10-23T04:58:27;14.20;92.80
38480;DHT22;62333;51.980;5.934;2022-10-23T05:00:53;14.20;92.80
38480;DHT22;62333;51.980;5.934;2022-10-23T05:03:19;14.20;92.80
38480;DHT22;62333;51.980;5.934;2022-10-23T05:05:45;14.20;92.90
38480;DHT22;62333;51.980;5.934;2022-10-23T05:08:11;14.20;92.90
38480;DHT22;62333;51.980;5.934;2022-10-23T05:10:37;14.20;93.00
38480;DHT22;62333;51.980;5.934;2022-10-23T05:13:04;14.20;93.10
38480;DHT22;62333;51.980;5.934;2022-10-23T05:15:29;14.20;93.10
38480;DHT22;62333;51.980;5.934;2022-10-23T05:17:58;14.30;93.10
38480;DHT22;62333;51.980;5.934;2022-10-23T05:20:30;14.20;93.10
38480;DHT22;62333;51.980;5.934;2022-10-23T05:22:58;14.20;93.00
38480;DHT22;62333;51.980;5.934;2022-10-23T05:25:24;14.30;93.00
38480;DHT22;62333;51.980;5.934;2022-10-23T05:27:51;14.20;93.00
38480;DHT22;62333;51.980;5.934;2022-10-23T05:30:17;14.30;93.00
38480;DHT22;62333;51.980;5.934;2022-10-23T05:32:42;14.30;93.10
38480;DHT22;62333;51.980;5.934;2022-10-23T05:35:16;14.30;93.10
38480;DHT22;62333;51.980;5.934;2022-10-23T05:37:44;14.30;93.10
38480;DHT22;62333;51.980;5.934;2022-10-23T05:40:11;14.30;93.10
38480;DHT22;62333;51.980;5.934;2022-10-23T05:42:37;14.30;93.20
38480;DHT22;62333;51.980;5.934;2022-10-23T05:45:03;14.30;93.30
38480;DHT22;62333;51.980;5.934;2022-10-23T05:47:29;14.30;93.30
38480;DHT22;62333;51.980;5.934;2022-10-23T05:49:56;14.30;93.30
38480;DHT22;62333;51.980;5.934;2022-10-23T05:52:21;14.30;93.30
38480;DHT22;62333;51.980;5.934;2022-10-23T05:54:50;14.30;93.30
38480;DHT22;62333;51.980;5.934;2022-10-23T05:57:16;14.40;93.30
38480;DHT22;62333;51.980;5.934;2022-10-23T05:59:41;14.40;93.40
38480;DHT22;62333;51.980;5.934;2022-10-23T06:02:07;14.40;93.40
38480;DHT22;62333;51.980;5.934;2022-10-23T06:04:34;14.40;93.50
38480;DHT22;62333;51.980;5.934;2022-10-23T06:07:00;14.40;93.40
38480;DHT22;62333;51.980;5.934;2022-10-23T06:09:25;14.40;93.50
38480;DHT22;62333;51.980;5.934;2022-10-23T06:11:51;14.40;93.50
38480;DHT22;62333;51.980;5.934;2022-10-23T06:14:17;14.50;93.50
38480;DHT22;62333;51.980;5.934;2022-10-23T06:16:43;14.50;93.50
38480;DHT22;62333;51.980;5.934;2022-10-23T06:19:10;14.50;93.50
38480;DHT22;62333;51.980;5.934;2022-10-23T06:21:36;14.40;93.50
38480;DHT22;62333;51.980;5.934;2022-10-23T06:24:03;14.50;93.60
38480;DHT22;62333;51.980;5.934;2022-10-23T06:26:29;14.50;93.50
38480;DHT22;62333;51.980;5.934;2022-10-23T06:28:55;14.50;93.50
38480;DHT22;62333;51.980;5.934;2022-10-23T06:31:24;14.60;93.60
38480;DHT22;62333;51.980;5.934;2022-10-23T06:33:53;14.60;93.60
38480;DHT22;62333;51.980;5.934;2022-10-23T06:36:19;14.60;93.60
38480;DHT22;62333;51.980;5.934;2022-10-23T06:38:45;14.60;93.60
38480;DHT22;62333;51.980;5.934;2022-10-23T06:41:14;14.60;93.60
38480;DHT22;62333;51.980;5.934;2022-10-23T06:43:40;14.60;93.60
38480;DHT22;62333;51.980;5.934;2022-10-23T06:46:05;14.60;93.60
38480;DHT22;62333;51.980;5.934;2022-10-23T06:48:31;14.60;93.70
38480;DHT22;62333;51.980;5.934;2022-10-23T06:50:57;14.60;93.70
38480;DHT22;62333;51.980;5.934;2022-10-23T06:53:24;14.70;93.70
38480;DHT22;62333;51.980;5.934;2022-10-23T06:55:51;14.70;93.70
38480;DHT22;62333;51.980;5.934;2022-10-23T06:58:17;14.70;93.70
38480;DHT22;62333;51.980;5.934;2022-10-23T07:00:43;14.70;93.70
38480;DHT22;62333;51.980;5.934;2022-10-23T07:03:09;14.70;93.70
38480;DHT22;62333;51.980;5.934;2022-10-23T07:05:35;14.70;93.70
38480;DHT22;62333;51.980;5.934;2022-10-23T07:08:03;14.70;93.70
38480;DHT22;62333;51.980;5.934;2022-10-23T07:10:28;14.80;93.80
38480;DHT22;62333;51.980;5.934;2022-10-23T07:12:54;14.80;93.80
38480;DHT22;62333;51.980;5.934;2022-10-23T07:15:25;14.80;93.80
38480;DHT22;62333;51.980;5.934;2022-10-23T07:17:51;14.80;93.80
38480;DHT22;62333;51.980;5.934;2022-10-23T07:20:17;14.80;93.80
38480;DHT22;62333;51.980;5.934;2022-10-23T07:22:43;14.80;93.80
38480;DHT22;62333;51.980;5.934;2022-10-23T07:25:09;14.90;93.80
38480;DHT22;62333;51.980;5.934;2022-10-23T07:27:38;14.90;93.80
38480;DHT22;62333;51.980;5.934;2022-10-23T07:30:04;14.90;93.80
38480;DHT22;62333;51.980;5.934;2022-10-23T07:32:29;14.90;93.80
38480;DHT22;62333;51.980;5.934;2022-10-23T07:34:55;14.90;93.80
38480;DHT22;62333;51.980;5.934;2022-10-23T07:37:21;14.90;93.90
38480;DHT22;62333;51.980;5.934;2022-10-23T07:39:46;14.90;93.90
38480;DHT22;62333;51.980;5.934;2022-10-23T07:42:12;14.90;93.90
38480;DHT22;62333;51.980;5.934;2022-10-23T07:44:37;14.90;93.90
38480;DHT22;62333;51.980;5.934;2022-10-23T07:47:03;15.00;93.90
38480;DHT22;62333;51.980;5.934;2022-10-23T07:49:32;15.00;93.90
38480;DHT22;62333;51.980;5.934;2022-10-23T07:51:57;15.00;94.00
38480;DHT22;62333;51.980;5.934;2022-10-23T07:54:23;15.00;94.00
38480;DHT22;62333;51.980;5.934;2022-10-23T07:56:49;15.00;94.00
38480;DHT22;62333;51.980;5.934;2022-10-23T07:59:15;15.10;94.00
38480;DHT22;62333;51.980;5.934;2022-10-23T08:01:41;15.10;94.00
38480;DHT22;62333;51.980;5.934;2022-10-23T08:04:08;15.10;94.00
38480;DHT22;62333;51.980;5.934;2022-10-23T08:06:34;15.10;94.00
38480;DHT22;62333;51.980;5.934;2022-10-23T08:09:00;15.10;94.30
38480;DHT22;62333;51.980;5.934;2022-10-23T08:11:26;15.10;94.00
38480;DHT22;62333;51.980;5.934;2022-10-23T08:13:56;15.10;94.00
38480;DHT22;62333;51.980;5.934;2022-10-23T08:16:23;15.20;94.00
38480;DHT22;62333;51.980;5.934;2022-10-23T08:18:49;15.20;94.10
38480;DHT22;62333;51.980;5.934;2022-10-23T08:21:15;15.20;94.10
38480;DHT22;62333;51.980;5.934;2022-10-23T08:23:41;15.20;94.00
38480;DHT22;62333;51.980;5.934;2022-10-23T08:26:08;15.20;94.10
38480;DHT22;62333;51.980;5.934;2022-10-23T08:28:34;15.20;94.10
38480;DHT22;62333;51.980;5.934;2022-10-23T08:31:09;15.30;94.10
38480;DHT22;62333;51.980;5.934;2022-10-23T08:33:36;15.30;94.10
38480;DHT22;62333;51.980;5.934;2022-10-23T08:36:02;15.30;94.10
38480;DHT22;62333;51.980;5.934;2022-10-23T08:38:28;15.30;94.10
38480;DHT22;62333;51.980;5.934;2022-10-23T08:40:53;15.40;94.10
38480;DHT22;62333;51.980;5.934;2022-10-23T08:43:42;15.40;94.10
38480;DHT22;62333;51.980;5.934;2022-10-23T08:46:11;15.40;94.10
38480;DHT22;62333;51.980;5.934;2022-10-23T08:48:47;15.40;94.10
38480;DHT22;62333;51.980;5.934;2022-10-23T08:51:47;15.50;94.10
38480;DHT22;62333;51.980;5.934;2022-10-23T08:57:03;15.50;94.10
38480;DHT22;62333;51.980;5.934;2022-10-23T08:59:46;15.60;94.10
38480;DHT22;62333;51.980;5.934;2022-10-23T09:02:15;15.70;94.10
38480;DHT22;62333;51.980;5.934;2022-10-23T09:04:45;15.70;94.10
38480;DHT22;62333;51.980;5.934;2022-10-23T09:07:42;15.70;94.10
38480;DHT22;62333;51.980;5.934;2022-10-23T09:13:22;15.80;94.00
38480;DHT22;62333;51.980;5.934;2022-10-23T09:16:19;15.80;94.00
38480;DHT22;62333;51.980;5.934;2022-10-23T09:18:49;15.90;93.90
38480;DHT22;62333;51.980;5.934;2022-10-23T09:21:15;15.90;93.90
38480;DHT22;62333;51.980;5.934;2022-10-23T09:23:40;15.90;93.90
38480;DHT22;62333;51.980;5.934;2022-10-23T09:26:16;16.00;93.90
38480;DHT22;62333;51.980;5.934;2022-10-23T09:28:50;16.00;93.80
38480;DHT22;62333;51.980;5.934;2022-10-23T09:31:17;16.00;93.80
38480;DHT22;62333;51.980;5.934;2022-10-23T09:33:57;16.10;93.80
38480;DHT22;62333;51.980;5.934;2022-10-23T09:36:25;16.10;93.70
38480;DHT22;62333;51.980;5.934;2022-10-23T09:38:55;16.10;93.70
38480;DHT22;62333;51.980;5.934;2022-10-23T09:41:36;16.10;93.70
38480;DHT22;62333;51.980;5.934;2022-10-23T09:46:58;16.20;93.60
38480;DHT22;62333;51.980;5.934;2022-10-23T09:49:27;16.20;93.50
38480;DHT22;62333;51.980;5.934;2022-10-23T09:54:29;16.20;93.50
38480;DHT22;62333;51.980;5.934;2022-10-23T09:57:26;16.30;93.50
38480;DHT22;62333;51.980;5.934;2022-10-23T10:02:30;16.30;93.40
38480;DHT22;62333;51.980;5.934;2022-10-23T10:04:57;16.30;93.40
38480;DHT22;62333;51.980;5.934;2022-10-23T10:07:26;16.40;93.40
38480;DHT22;62333;51.980;5.934;2022-10-23T10:09:53;16.40;93.40
38480;DHT22;62333;51.980;5.934;2022-10-23T10:15:19;16.50;93.20
38480;DHT22;62333;51.980;5.934;2022-10-23T10:23:44;16.60;93.10
38480;DHT22;62333;51.980;5.934;2022-10-23T10:32:03;16.60;92.90
38480;DHT22;62333;51.980;5.934;2022-10-23T10:34:46;16.70;92.90
38480;DHT22;62333;51.980;5.934;2022-10-23T10:38:04;16.70;92.90
38480;DHT22;62333;51.980;5.934;2022-10-23T10:45:38;16.80;92.70
38480;DHT22;62333;51.980;5.934;2022-10-23T10:48:09;16.80;92.60
38480;DHT22;62333;51.980;5.934;2022-10-23T10:51:02;16.90;92.60
38480;DHT22;62333;51.980;5.934;2022-10-23T10:54:12;16.90;92.50
38480;DHT22;62333;51.980;5.934;2022-10-23T10:56:43;16.90;92.40
38480;DHT22;62333;51.980;5.934;2022-10-23T10:59:22;17.00;92.40
38480;DHT22;62333;51.980;5.934;2022-10-23T11:04:45;17.00;92.30
38480;DHT22;62333;51.980;5.934;2022-10-23T11:07:14;17.00;92.20
38480;DHT22;62333;51.980;5.934;2022-10-23T11:09:41;17.00;92.20
38480;DHT22;62333;51.980;5.934;2022-10-23T11:12:19;17.10;92.10
38480;DHT22;62333;51.980;5.934;2022-10-23T11:14:45;17.10;92.00
38480;DHT22;62333;51.980;5.934;2022-10-23T11:17:19;17.20;92.00
38480;DHT22;62333;51.980;5.934;2022-10-23T11:20:06;17.20;91.90
38480;DHT22;62333;51.980;5.934;2022-10-23T11:22:40;17.30;91.80
38480;DHT22;62333;51.980;5.934;2022-10-23T11:40:50;17.60;91.20
38480;DHT22;62333;51.980;5.934;2022-10-23T11:43:46;17.60;91.20
38480;DHT22;62333;51.980;5.934;2022-10-23T11:48:49;17.80;90.80
38480;DHT22;62333;51.980;5.934;2022-10-23T11:51:44;17.80;90.70
38480;DHT22;62333;51.980;5.934;2022-10-23T11:56:36;17.90;90.50
38480;DHT22;62333;51.980;5.934;2022-10-23T11:59:28;17.90;90.50
38480;DHT22;62333;51.980;5.934;2022-10-23T12:01:58;18.00;90.50
38480;DHT22;62333;51.980;5.934;2022-10-23T12:04:40;18.10;90.40
38480;DHT22;62333;51.980;5.934;2022-10-23T12:07:36;18.20;90.20
38480;DHT22;62333;51.980;5.934;2022-10-23T12:10:31;18.20;90.00
38480;DHT22;62333;51.980;5.934;2022-10-23T12:13:04;18.20;89.90
38480;DHT22;62333;51.980;5.934;2022-10-23T12:15:31;18.30;89.80
38480;DHT22;62333;51.980;5.934;2022-10-23T12:18:13;18.40;89.80
38480;DHT22;62333;51.980;5.934;2022-10-23T12:20:57;18.50;89.40
38480;DHT22;62333;51.980;5.934;2022-10-23T12:26:15;18.60;88.80
38480;DHT22;62333;51.980;5.934;2022-10-23T12:29:10;18.80;88.40
38480;DHT22;62333;51.980;5.934;2022-10-23T12:39:31;19.00;87.10
38480;DHT22;62333;51.980;5.934;2022-10-23T12:41:58;19.00;86.90
38480;DHT22;62333;51.980;5.934;2022-10-23T12:44:25;19.00;86.70
38480;DHT22;62333;51.980;5.934;2022-10-23T12:46:57;19.10;86.40
38480;DHT22;62333;51.980;5.934;2022-10-23T12:49:26;19.10;86.20
38480;DHT22;62333;51.980;5.934;2022-10-23T12:51:57;19.00;86.50
38480;DHT22;62333;51.980;5.934;2022-10-23T12:54:23;19.00;86.50
38480;DHT22;62333;51.980;5.934;2022-10-23T12:56:49;19.10;86.60
38480;DHT22;62333;51.980;5.934;2022-10-23T12:59:17;19.10;86.60
38480;DHT22;62333;51.980;5.934;2022-10-23T13:01:44;19.10;86.30
38480;DHT22;62333;51.980;5.934;2022-10-23T13:04:12;19.20;86.40
38480;DHT22;62333;51.980;5.934;2022-10-23T13:06:39;19.20;86.40
38480;DHT22;62333;51.980;5.934;2022-10-23T13:09:21;19.30;86.30
38480;DHT22;62333;51.980;5.934;2022-10-23T13:11:50;19.30;86.20
38480;DHT22;62333;51.980;5.934;2022-10-23T13:17:20;19.40;86.10
38480;DHT22;62333;51.980;5.934;2022-10-23T13:19:45;19.40;86.10
38480;DHT22;62333;51.980;5.934;2022-10-23T13:22:21;19.40;85.90
38480;DHT22;62333;51.980;5.934;2022-10-23T13:24:50;19.50;85.70
38480;DHT22;62333;51.980;5.934;2022-10-23T13:29:56;19.50;85.90
38480;DHT22;62333;51.980;5.934;2022-10-23T13:32:23;19.40;86.10
38480;DHT22;62333;51.980;5.934;2022-10-23T13:34:50;19.50;86.20
38480;DHT22;62333;51.980;5.934;2022-10-23T13:37:24;19.50;86.30
38480;DHT22;62333;51.980;5.934;2022-10-23T13:40:19;19.50;86.40
38480;DHT22;62333;51.980;5.934;2022-10-23T13:42:50;19.50;86.30
38480;DHT22;62333;51.980;5.934;2022-10-23T13:45:23;19.50;86.40
38480;DHT22;62333;51.980;5.934;2022-10-23T13:47:49;19.60;87.10
38480;DHT22;62333;51.980;5.934;2022-10-23T13:50:15;19.50;86.50
38480;DHT22;62333;51.980;5.934;2022-10-23T13:52:41;19.50;86.40
38480;DHT22;62333;51.980;5.934;2022-10-23T13:55:22;19.50;86.60
38480;DHT22;62333;51.980;5.934;2022-10-23T13:57:49;19.60;86.50
38480;DHT22;62333;51.980;5.934;2022-10-23T14:00:15;19.60;86.50
38480;DHT22;62333;51.980;5.934;2022-10-23T14:02:40;19.60;86.20
38480;DHT22;62333;51.980;5.934;2022-10-23T14:05:07;19.60;86.30
38480;DHT22;62333;51.980;5.934;2022-10-23T14:07:33;19.60;86.10
38480;DHT22;62333;51.980;5.934;2022-10-23T14:09:58;19.60;85.90
38480;DHT22;62333;51.980;5.934;2022-10-23T14:12:24;19.60;85.80
38480;DHT22;62333;51.980;5.934;2022-10-23T14:14:51;19.60;85.90
38480;DHT22;62333;51.980;5.934;2022-10-23T14:17:17;19.60;85.70
38480;DHT22;62333;51.980;5.934;2022-10-23T14:19:43;19.60;85.70
38480;DHT22;62333;51.980;5.934;2022-10-23T14:22:10;19.60;85.70
38480;DHT22;62333;51.980;5.934;2022-10-23T14:24:36;19.60;85.70
38480;DHT22;62333;51.980;5.934;2022-10-23T14:27:02;19.60;85.80
38480;DHT22;62333;51.980;5.934;2022-10-23T14:29:27;19.60;85.70
38480;DHT22;62333;51.980;5.934;2022-10-23T14:31:53;19.60;85.30
38480;DHT22;62333;51.980;5.934;2022-10-23T14:34:19;19.70;85.40
38480;DHT22;62333;51.980;5.934;2022-10-23T14:36:45;19.60;85.10
38480;DHT22;62333;51.980;5.934;2022-10-23T14:39:11;19.60;85.20
38480;DHT22;62333;51.980;5.934;2022-10-23T14:41:36;19.60;85.00
38480;DHT22;62333;51.980;5.934;2022-10-23T14:44:05;19.60;84.70
38480;DHT22;62333;51.980;5.934;2022-10-23T14:46:31;19.60;84.90
38480;DHT22;62333;51.980;5.934;2022-10-23T14:48:57;19.50;84.90
38480;DHT22;62333;51.980;5.934;2022-10-23T14:51:25;19.50;84.80
38480;DHT22;62333;51.980;5.934;2022-10-23T14:53:59;19.50;84.80
38480;DHT22;62333;51.980;5.934;2022-10-23T14:56:30;19.50;84.70
38480;DHT22;62333;51.980;5.934;2022-10-23T14:58:57;19.50;84.80
38480;DHT22;62333;51.980;5.934;2022-10-23T15:01:30;19.50;84.80
38480;DHT22;62333;51.980;5.934;2022-10-23T15:03:56;19.50;84.90
38480;DHT22;62333;51.980;5.934;2022-10-23T15:06:22;19.40;85.00
38480;DHT22;62333;51.980;5.934;2022-10-23T15:08:49;19.40;85.10
38480;DHT22;62333;51.980;5.934;2022-10-23T15:11:15;19.40;85.10
38480;DHT22;62333;51.980;5.934;2022-10-23T15:13:41;19.40;85.10
38480;DHT22;62333;51.980;5.934;2022-10-23T15:16:09;19.40;85.80
38480;DHT22;62333;51.980;5.934;2022-10-23T15:18:35;19.30;85.00
38480;DHT22;62333;51.980;5.934;2022-10-23T15:21:05;19.40;84.90
38480;DHT22;62333;51.980;5.934;2022-10-23T15:23:43;19.40;85.10
38480;DHT22;62333;51.980;5.934;2022-10-23T15:26:12;19.30;85.00
38480;DHT22;62333;51.980;5.934;2022-10-23T15:28:40;19.30;85.10
38480;DHT22;62333;51.980;5.934;2022-10-23T15:31:24;19.30;85.30
38480;DHT22;62333;51.980;5.934;2022-10-23T15:34:09;19.20;85.20
38480;DHT22;62333;51.980;5.934;2022-10-23T15:36:35;19.20;85.30
38480;DHT22;62333;51.980;5.934;2022-10-23T15:39:02;19.20;85.30
38480;DHT22;62333;51.980;5.934;2022-10-23T15:41:31;19.20;85.40
38480;DHT22;62333;51.980;5.934;2022-10-23T15:43:58;19.20;85.30
38480;DHT22;62333;51.980;5.934;2022-10-23T15:46:24;19.20;85.20
38480;DHT22;62333;51.980;5.934;2022-10-23T15:48:50;19.20;85.30
38480;DHT22;62333;51.980;5.934;2022-10-23T15:51:16;19.20;85.30
38480;DHT22;62333;51.980;5.934;2022-10-23T15:53:42;19.20;85.10
38480;DHT22;62333;51.980;5.934;2022-10-23T15:56:07;19.20;85.30
38480;DHT22;62333;51.980;5.934;2022-10-23T15:58:33;19.20;85.40
38480;DHT22;62333;51.980;5.934;2022-10-23T16:01:01;19.20;85.50
38480;DHT22;62333;51.980;5.934;2022-10-23T16:03:33;19.20;85.40
38480;DHT22;62333;51.980;5.934;2022-10-23T16:06:06;19.10;85.50
38480;DHT22;62333;51.980;5.934;2022-10-23T16:08:32;19.00;85.60
38480;DHT22;62333;51.980;5.934;2022-10-23T16:10:57;19.00;85.70
38480;DHT22;62333;51.980;5.934;2022-10-23T16:13:24;19.00;85.90
38480;DHT22;62333;51.980;5.934;2022-10-23T16:15:50;19.00;85.90
38480;DHT22;62333;51.980;5.934;2022-10-23T16:18:18;18.90;86.00
38480;DHT22;62333;51.980;5.934;2022-10-23T16:20:44;18.90;86.10
38480;DHT22;62333;51.980;5.934;2022-10-23T16:23:09;18.90;86.20
38480;DHT22;62333;51.980;5.934;2022-10-23T16:25:36;18.90;86.30
38480;DHT22;62333;51.980;5.934;2022-10-23T16:28:03;18.90;86.40
38480;DHT22;62333;51.980;5.934;2022-10-23T16:30:29;18.90;87.10
38480;DHT22;62333;51.980;5.934;2022-10-23T16:32:55;18.80;86.60
38480;DHT22;62333;51.980;5.934;2022-10-23T16:35:21;18.80;86.60
38480;DHT22;62333;51.980;5.934;2022-10-23T16:37:47;18.80;86.70
38480;DHT22;62333;51.980;5.934;2022-10-23T16:40:13;18.80;86.80
38480;DHT22;62333;51.980;5.934;2022-10-23T16:42:39;18.80;86.80
38480;DHT22;62333;51.980;5.934;2022-10-23T16:45:07;18.80;86.80
38480;DHT22;62333;51.980;5.934;2022-10-23T16:47:33;18.80;86.90
38480;DHT22;62333;51.980;5.934;2022-10-23T16:49:59;18.80;86.90
38480;DHT22;62333;51.980;5.934;2022-10-23T16:52:26;18.80;87.00
38480;DHT22;62333;51.980;5.934;2022-10-23T16:54:52;18.70;87.00
38480;DHT22;62333;51.980;5.934;2022-10-23T16:57:18;18.80;87.00
38480;DHT22;62333;51.980;5.934;2022-10-23T16:59:43;18.80;87.10
38480;DHT22;62333;51.980;5.934;2022-10-23T17:02:10;18.70;87.10
38480;DHT22;62333;51.980;5.934;2022-10-23T17:04:36;18.70;87.20
38480;DHT22;62333;51.980;5.934;2022-10-23T17:07:03;18.60;87.30
38480;DHT22;62333;51.980;5.934;2022-10-23T17:09:28;18.60;87.50
38480;DHT22;62333;51.980;5.934;2022-10-23T17:11:56;18.60;87.70
38480;DHT22;62333;51.980;5.934;2022-10-23T17:14:22;18.50;87.80
38480;DHT22;62333;51.980;5.934;2022-10-23T17:16:57;18.50;88.00
38480;DHT22;62333;51.980;5.934;2022-10-23T17:19:25;18.50;88.10
38480;DHT22;62333;51.980;5.934;2022-10-23T17:21:51;18.50;88.20
38480;DHT22;62333;51.980;5.934;2022-10-23T17:24:17;18.50;88.10
38480;DHT22;62333;51.980;5.934;2022-10-23T17:26:44;18.50;88.10
38480;DHT22;62333;51.980;5.934;2022-10-23T17:29:10;18.50;88.10